sensor_id;sensor_type;location;lat;lon;timestamp;pressure;altitude;pressure_sealevel;temperature;humidity
61359;BME280;47228;46.762;23.598;2023-09-19T00:00:48;97322.14;;;16.20;75.74
61359;BME280;47228;46.762;23.598;2023-09-19T00:03:36;97320.73;;;16.20;75.76
61359;BME280;47228;46.762;23.598;2023-09-19T00:06:09;97312.55;;;16.18;75.87
61359;BME280;47228;46.762;23.598;2023-09-19T00:08:38;97303.38;;;16.18;76.04
61359;BME280;47228;46.762;23.598;2023-09-19T00:11:06;97304.45;;;16.17;75.92
61359;BME280;47228;46.762;23.598;2023-09-19T00:13:34;97296.83;;;16.13;76.00
61359;BME280;47228;46.762;23.598;2023-09-19T00:16:10;97293.56;;;16.13;76.30
61359;BME280;47228;46.762;23.598;2023-09-19T00:18:39;97295.73;;;16.15;76.35
61359;BME280;47228;46.762;23.598;2023-09-19T00:21:07;97294.78;;;16.15;76.20
61359;BME280;47228;46.762;23.598;2023-09-19T00:23:35;97299.66;;;16.12;76.05
61359;BME280;47228;46.762;23.598;2023-09-19T00:26:03;97299.63;;;16.11;76.12
61359;BME280;47228;46.762;23.598;2023-09-19T00:28:32;97290.48;;;16.12;75.97
61359;BME280;47228;46.762;23.598;2023-09-19T00:31:00;97285.17;;;16.11;76.03
61359;BME280;47228;46.762;23.598;2023-09-19T00:33:30;97279.61;;;16.12;76.03
61359;BME280;47228;46.762;23.598;2023-09-19T00:35:58;97272.16;;;16.12;75.68
61359;BME280;47228;46.762;23.598;2023-09-19T00:38:26;97270.38;;;16.11;75.58
61359;BME280;47228;46.762;23.598;2023-09-19T00:40:56;97265.80;;;16.10;75.42
61359;BME280;47228;46.762;23.598;2023-09-19T00:43:27;97258.08;;;16.06;75.21
61359;BME280;47228;46.762;23.598;2023-09-19T00:45:56;97253.36;;;16.06;75.56
61359;BME280;47228;46.762;23.598;2023-09-19T00:48:25;97252.78;;;16.04;75.63
61359;BME280;47228;46.762;23.598;2023-09-19T00:50:59;97245.48;;;16.05;75.62
61359;BME280;47228;46.762;23.598;2023-09-19T00:53:30;97245.77;;;16.04;75.51
61359;BME280;47228;46.762;23.598;2023-09-19T00:55:58;97243.38;;;16.05;75.50
61359;BME280;47228;46.762;23.598;2023-09-19T00:58:26;97243.39;;;16.06;75.50
61359;BME280;47228;46.762;23.598;2023-09-19T01:01:01;97245.20;;;16.08;75.40
61359;BME280;47228;46.762;23.598;2023-09-19T01:03:29;97247.49;;;16.10;75.15
61359;BME280;47228;46.762;23.598;2023-09-19T01:05:59;97249.80;;;16.12;75.15
61359;BME280;47228;46.762;23.598;2023-09-19T01:08:28;97246.55;;;16.12;74.80
61359;BME280;47228;46.762;23.598;2023-09-19T01:11:20;97239.52;;;16.12;74.88
61359;BME280;47228;46.762;23.598;2023-09-19T01:13:59;97229.40;;;16.12;75.07
61359;BME280;47228;46.762;23.598;2023-09-19T01:21:57;97212.52;;;16.14;74.94
61359;BME280;47228;46.762;23.598;2023-09-19T01:30:46;97210.55;;;16.23;74.82
61359;BME280;47228;46.762;23.598;2023-09-19T01:33:14;97215.16;;;16.23;74.75
61359;BME280;47228;46.762;23.598;2023-09-19T01:35:43;97210.34;;;16.23;74.47
61359;BME280;47228;46.762;23.598;2023-09-19T01:38:11;97206.90;;;16.22;74.09
61359;BME280;47228;46.762;23.598;2023-09-19T01:40:42;97205.27;;;16.21;74.15
61359;BME280;47228;46.762;23.598;2023-09-19T01:43:28;97207.69;;;16.22;74.44
61359;BME280;47228;46.762;23.598;2023-09-19T01:46:24;97211.23;;;16.22;74.33
61359;BME280;47228;46.762;23.598;2023-09-19T01:51:34;97212.25;;;16.21;74.52
61359;BME280;47228;46.762;23.598;2023-09-19T01:54:10;97206.61;;;16.21;74.98
61359;BME280;47228;46.762;23.598;2023-09-19T01:56:50;97205.27;;;16.21;75.40
61359;BME280;47228;46.762;23.598;2023-09-19T01:59:25;97202.45;;;16.22;75.84
61359;BME280;47228;46.762;23.598;2023-09-19T02:01:56;97200.93;;;16.24;75.56
61359;BME280;47228;46.762;23.598;2023-09-19T02:04:25;97207.97;;;16.25;75.59
61359;BME280;47228;46.762;23.598;2023-09-19T02:06:55;97209.56;;;16.24;75.84
61359;BME280;47228;46.762;23.598;2023-09-19T02:09:23;97200.52;;;16.25;76.33
61359;BME280;47228;46.762;23.598;2023-09-19T02:11:51;97201.66;;;16.26;76.46
61359;BME280;47228;46.762;23.598;2023-09-19T02:14:19;97206.19;;;16.24;76.38
61359;BME280;47228;46.762;23.598;2023-09-19T02:16:47;97206.88;;;16.20;76.06
61359;BME280;47228;46.762;23.598;2023-09-19T02:19:18;97213.55;;;16.15;75.48
61359;BME280;47228;46.762;23.598;2023-09-19T02:21:46;97206.83;;;16.11;75.96
61359;BME280;47228;46.762;23.598;2023-09-19T02:24:16;97197.64;;;16.09;76.22
61359;BME280;47228;46.762;23.598;2023-09-19T02:26:44;97195.45;;;16.09;76.75
61359;BME280;47228;46.762;23.598;2023-09-19T02:29:12;97190.02;;;16.09;76.77
61359;BME280;47228;46.762;23.598;2023-09-19T02:31:41;97185.73;;;16.09;76.93
61359;BME280;47228;46.762;23.598;2023-09-19T02:34:09;97177.84;;;16.10;76.99
61359;BME280;47228;46.762;23.598;2023-09-19T02:36:38;97176.16;;;16.13;77.23
61359;BME280;47228;46.762;23.598;2023-09-19T02:39:06;97181.25;;;16.12;76.91
61359;BME280;47228;46.762;23.598;2023-09-19T02:41:36;97183.38;;;16.11;77.11
61359;BME280;47228;46.762;23.598;2023-09-19T02:44:04;97181.70;;;16.14;77.28
61359;BME280;47228;46.762;23.598;2023-09-19T02:46:35;97182.63;;;16.15;77.15
61359;BME280;47228;46.762;23.598;2023-09-19T02:49:06;97184.83;;;16.16;77.31
61359;BME280;47228;46.762;23.598;2023-09-19T02:51:34;97182.54;;;16.17;77.22
61359;BME280;47228;46.762;23.598;2023-09-19T02:54:02;97179.55;;;16.18;77.26
61359;BME280;47228;46.762;23.598;2023-09-19T02:56:31;97178.58;;;16.21;77.37
61359;BME280;47228;46.762;23.598;2023-09-19T02:59:00;97183.09;;;16.21;76.96
61359;BME280;47228;46.762;23.598;2023-09-19T03:01:28;97181.14;;;16.19;76.40
61359;BME280;47228;46.762;23.598;2023-09-19T03:03:57;97173.84;;;16.19;76.80
61359;BME280;47228;46.762;23.598;2023-09-19T03:06:25;97177.02;;;16.19;77.16
61359;BME280;47228;46.762;23.598;2023-09-19T03:08:52;97178.66;;;16.19;77.24
61359;BME280;47228;46.762;23.598;2023-09-19T03:11:20;97180.52;;;16.18;77.12
61359;BME280;47228;46.762;23.598;2023-09-19T03:13:54;97177.90;;;16.18;77.21
61359;BME280;47228;46.762;23.598;2023-09-19T03:16:22;97170.64;;;16.20;77.24
61359;BME280;47228;46.762;23.598;2023-09-19T03:18:50;97171.11;;;16.22;77.12
61359;BME280;47228;46.762;23.598;2023-09-19T03:21:19;97171.09;;;16.25;77.19
61359;BME280;47228;46.762;23.598;2023-09-19T03:23:47;97167.00;;;16.27;77.01
61359;BME280;47228;46.762;23.598;2023-09-19T03:26:15;97166.59;;;16.28;76.77
61359;BME280;47228;46.762;23.598;2023-09-19T03:28:44;97164.01;;;16.28;76.11
61359;BME280;47228;46.762;23.598;2023-09-19T03:31:13;97161.21;;;16.27;75.74
61359;BME280;47228;46.762;23.598;2023-09-19T03:33:41;97157.69;;;16.28;75.77
61359;BME280;47228;46.762;23.598;2023-09-19T03:36:09;97153.98;;;16.28;75.81
61359;BME280;47228;46.762;23.598;2023-09-19T03:38:38;97149.05;;;16.27;75.65
61359;BME280;47228;46.762;23.598;2023-09-19T03:41:06;97154.45;;;16.26;75.81
61359;BME280;47228;46.762;23.598;2023-09-19T03:43:34;97151.31;;;16.24;76.04
61359;BME280;47228;46.762;23.598;2023-09-19T03:46:02;97149.80;;;16.24;75.92
61359;BME280;47228;46.762;23.598;2023-09-19T03:48:33;97146.17;;;16.21;75.70
61359;BME280;47228;46.762;23.598;2023-09-19T03:51:02;97141.74;;;16.19;75.92
61359;BME280;47228;46.762;23.598;2023-09-19T03:53:30;97144.16;;;16.17;76.26
61359;BME280;47228;46.762;23.598;2023-09-19T03:55:58;97148.69;;;16.14;76.09
61359;BME280;47228;46.762;23.598;2023-09-19T03:58:27;97148.76;;;16.11;76.07
61359;BME280;47228;46.762;23.598;2023-09-19T04:00:56;97145.90;;;16.10;76.24
61359;BME280;47228;46.762;23.598;2023-09-19T04:03:24;97145.09;;;16.10;76.06
61359;BME280;47228;46.762;23.598;2023-09-19T04:06:02;97143.27;;;16.10;76.22
61359;BME280;47228;46.762;23.598;2023-09-19T04:08:31;97144.85;;;16.11;75.70
61359;BME280;47228;46.762;23.598;2023-09-19T04:10:59;97145.00;;;16.11;75.97
61359;BME280;47228;46.762;23.598;2023-09-19T04:13:27;97143.73;;;16.11;75.64
61359;BME280;47228;46.762;23.598;2023-09-19T04:15:56;97139.70;;;16.11;75.28
61359;BME280;47228;46.762;23.598;2023-09-19T04:18:24;97138.30;;;16.10;75.07
61359;BME280;47228;46.762;23.598;2023-09-19T04:20:53;97141.53;;;16.08;75.54
61359;BME280;47228;46.762;23.598;2023-09-19T04:23:21;97143.07;;;16.06;75.65
61359;BME280;47228;46.762;23.598;2023-09-19T04:25:49;97144.40;;;16.06;75.76
61359;BME280;47228;46.762;23.598;2023-09-19T04:28:18;97142.41;;;16.06;76.01
61359;BME280;47228;46.762;23.598;2023-09-19T04:30:46;97141.66;;;16.06;76.02
61359;BME280;47228;46.762;23.598;2023-09-19T04:33:14;97137.69;;;16.06;75.98
61359;BME280;47228;46.762;23.598;2023-09-19T04:35:42;97131.14;;;16.05;75.91
61359;BME280;47228;46.762;23.598;2023-09-19T04:38:10;97128.86;;;16.06;75.39
61359;BME280;47228;46.762;23.598;2023-09-19T04:40:39;97126.20;;;16.07;74.99
61359;BME280;47228;46.762;23.598;2023-09-19T04:43:07;97127.39;;;16.09;74.88
61359;BME280;47228;46.762;23.598;2023-09-19T04:45:38;97129.61;;;16.10;74.73
61359;BME280;47228;46.762;23.598;2023-09-19T04:48:06;97129.96;;;16.11;75.06
61359;BME280;47228;46.762;23.598;2023-09-19T04:50:36;97129.95;;;16.11;74.80
61359;BME280;47228;46.762;23.598;2023-09-19T04:53:04;97129.11;;;16.12;74.81
61359;BME280;47228;46.762;23.598;2023-09-19T04:55:33;97130.06;;;16.14;74.98
61359;BME280;47228;46.762;23.598;2023-09-19T04:58:01;97132.74;;;16.15;74.94
61359;BME280;47228;46.762;23.598;2023-09-19T05:00:30;97132.75;;;16.15;74.82
61359;BME280;47228;46.762;23.598;2023-09-19T05:02:58;97131.48;;;16.17;74.95
61359;BME280;47228;46.762;23.598;2023-09-19T05:05:27;97131.92;;;16.18;75.25
61359;BME280;47228;46.762;23.598;2023-09-19T05:07:56;97129.44;;;16.21;75.19
61359;BME280;47228;46.762;23.598;2023-09-19T05:10:24;97130.20;;;16.21;75.02
61359;BME280;47228;46.762;23.598;2023-09-19T05:12:53;97131.81;;;16.21;74.84
61359;BME280;47228;46.762;23.598;2023-09-19T05:15:21;97128.81;;;16.21;74.82
61359;BME280;47228;46.762;23.598;2023-09-19T05:17:50;97130.64;;;16.22;75.05
61359;BME280;47228;46.762;23.598;2023-09-19T05:20:23;97130.30;;;16.24;74.87
61359;BME280;47228;46.762;23.598;2023-09-19T05:25:31;97134.66;;;16.26;74.59
61359;BME280;47228;46.762;23.598;2023-09-19T05:28:00;97133.48;;;16.25;74.13
61359;BME280;47228;46.762;23.598;2023-09-19T05:30:32;97136.61;;;16.27;74.53
61359;BME280;47228;46.762;23.598;2023-09-19T05:33:02;97138.09;;;16.29;74.67
61359;BME280;47228;46.762;23.598;2023-09-19T05:35:32;97139.73;;;16.31;74.64
61359;BME280;47228;46.762;23.598;2023-09-19T05:38:00;97138.74;;;16.34;74.80
61359;BME280;47228;46.762;23.598;2023-09-19T05:40:28;97134.01;;;16.37;74.53
61359;BME280;47228;46.762;23.598;2023-09-19T05:42:56;97126.91;;;16.39;74.40
61359;BME280;47228;46.762;23.598;2023-09-19T05:45:25;97124.65;;;16.42;74.05
61359;BME280;47228;46.762;23.598;2023-09-19T05:47:53;97123.36;;;16.46;73.94
61359;BME280;47228;46.762;23.598;2023-09-19T05:50:32;97123.41;;;16.50;74.02
61359;BME280;47228;46.762;23.598;2023-09-19T05:52:59;97122.73;;;16.54;73.81
61359;BME280;47228;46.762;23.598;2023-09-19T05:55:27;97118.41;;;16.56;73.69
61359;BME280;47228;46.762;23.598;2023-09-19T05:57:56;97120.80;;;16.58;73.55
61359;BME280;47228;46.762;23.598;2023-09-19T06:00:25;97121.73;;;16.60;73.47
61359;BME280;47228;46.762;23.598;2023-09-19T06:02:56;97121.49;;;16.63;73.25
61359;BME280;47228;46.762;23.598;2023-09-19T06:05:26;97118.26;;;16.65;72.99
61359;BME280;47228;46.762;23.598;2023-09-19T06:07:55;97117.00;;;16.68;73.20
61359;BME280;47228;46.762;23.598;2023-09-19T06:10:23;97112.73;;;16.70;73.31
61359;BME280;47228;46.762;23.598;2023-09-19T06:12:53;97112.77;;;16.72;73.25
61359;BME280;47228;46.762;23.598;2023-09-19T06:15:22;97107.31;;;16.73;73.14
61359;BME280;47228;46.762;23.598;2023-09-19T06:17:54;97114.66;;;16.74;73.30
61359;BME280;47228;46.762;23.598;2023-09-19T06:20:27;97122.19;;;16.75;73.09
61359;BME280;47228;46.762;23.598;2023-09-19T06:22:56;97124.70;;;16.75;72.17
61359;BME280;47228;46.762;23.598;2023-09-19T06:25:24;97123.64;;;16.75;72.06
61359;BME280;47228;46.762;23.598;2023-09-19T06:27:52;97119.48;;;16.77;72.49
61359;BME280;47228;46.762;23.598;2023-09-19T06:30:23;97117.42;;;16.80;72.88
61359;BME280;47228;46.762;23.598;2023-09-19T06:32:58;97120.40;;;16.83;72.32
61359;BME280;47228;46.762;23.598;2023-09-19T06:35:28;97112.35;;;16.86;72.17
61359;BME280;47228;46.762;23.598;2023-09-19T06:37:57;97106.59;;;16.90;72.07
61359;BME280;47228;46.762;23.598;2023-09-19T06:40:26;97109.27;;;16.93;71.62
61359;BME280;47228;46.762;23.598;2023-09-19T06:42:56;97112.88;;;16.95;71.12
61359;BME280;47228;46.762;23.598;2023-09-19T06:45:24;97114.58;;;16.98;71.32
61359;BME280;47228;46.762;23.598;2023-09-19T06:47:55;97124.67;;;16.99;70.38
61359;BME280;47228;46.762;23.598;2023-09-19T06:50:26;97129.41;;;16.96;70.03
61359;BME280;47228;46.762;23.598;2023-09-19T06:52:55;97133.85;;;16.99;70.67
61359;BME280;47228;46.762;23.598;2023-09-19T06:55:26;97136.16;;;17.03;70.59
61359;BME280;47228;46.762;23.598;2023-09-19T06:58:00;97130.40;;;17.10;70.91
61359;BME280;47228;46.762;23.598;2023-09-19T07:00:28;97132.70;;;17.19;71.17
61359;BME280;47228;46.762;23.598;2023-09-19T07:03:06;97132.36;;;17.28;71.31
61359;BME280;47228;46.762;23.598;2023-09-19T07:05:41;97136.86;;;17.37;70.68
61359;BME280;47228;46.762;23.598;2023-09-19T07:08:10;97141.77;;;17.44;70.16
61359;BME280;47228;46.762;23.598;2023-09-19T07:10:41;97149.56;;;17.51;69.74
61359;BME280;47228;46.762;23.598;2023-09-19T07:13:11;97151.48;;;17.55;68.68
61359;BME280;47228;46.762;23.598;2023-09-19T07:15:39;97155.13;;;17.55;68.57
61359;BME280;47228;46.762;23.598;2023-09-19T07:18:09;97164.50;;;17.58;68.82
61359;BME280;47228;46.762;23.598;2023-09-19T07:20:39;97171.55;;;17.60;69.08
61359;BME280;47228;46.762;23.598;2023-09-19T07:23:07;97172.55;;;17.62;69.04
61359;BME280;47228;46.762;23.598;2023-09-19T07:25:35;97172.98;;;17.63;68.43
61359;BME280;47228;46.762;23.598;2023-09-19T07:28:04;97174.56;;;17.66;68.81
61359;BME280;47228;46.762;23.598;2023-09-19T07:30:36;97183.89;;;17.69;68.67
61359;BME280;47228;46.762;23.598;2023-09-19T07:33:05;97187.67;;;17.72;68.99
61359;BME280;47228;46.762;23.598;2023-09-19T07:35:33;97193.08;;;17.74;69.11
61359;BME280;47228;46.762;23.598;2023-09-19T07:38:01;97198.52;;;17.76;68.27
61359;BME280;47228;46.762;23.598;2023-09-19T07:40:29;97202.23;;;17.77;68.08
61359;BME280;47228;46.762;23.598;2023-09-19T07:42:58;97205.05;;;17.79;68.09
61359;BME280;47228;46.762;23.598;2023-09-19T07:45:29;97212.35;;;17.80;68.33
61359;BME280;47228;46.762;23.598;2023-09-19T07:47:58;97207.04;;;17.80;68.54
61359;BME280;47228;46.762;23.598;2023-09-19T07:50:28;97206.55;;;17.79;69.29
61359;BME280;47228;46.762;23.598;2023-09-19T07:52:56;97213.09;;;17.79;70.27
61359;BME280;47228;46.762;23.598;2023-09-19T07:55:24;97210.30;;;17.77;70.90
61359;BME280;47228;46.762;23.598;2023-09-19T07:57:53;97215.52;;;17.74;71.07
61359;BME280;47228;46.762;23.598;2023-09-19T08:00:21;97212.67;;;17.69;71.77
61359;BME280;47228;46.762;23.598;2023-09-19T08:02:49;97210.02;;;17.65;72.55
61359;BME280;47228;46.762;23.598;2023-09-19T08:05:30;97209.55;;;17.62;73.03
61359;BME280;47228;46.762;23.598;2023-09-19T08:07:58;97206.83;;;17.52;73.65
61359;BME280;47228;46.762;23.598;2023-09-19T08:10:27;97206.83;;;17.43;74.39
61359;BME280;47228;46.762;23.598;2023-09-19T08:12:56;97210.88;;;17.35;74.60
61359;BME280;47228;46.762;23.598;2023-09-19T08:15:26;97211.21;;;17.27;75.39
61359;BME280;47228;46.762;23.598;2023-09-19T08:17:54;97212.83;;;17.24;76.66
61359;BME280;47228;46.762;23.598;2023-09-19T08:20:23;97215.81;;;17.22;77.05
61359;BME280;47228;46.762;23.598;2023-09-19T08:22:53;97220.38;;;17.17;77.09
61359;BME280;47228;46.762;23.598;2023-09-19T08:25:25;97221.08;;;17.09;77.37
61359;BME280;47228;46.762;23.598;2023-09-19T08:27:56;97219.70;;;17.03;78.34
61359;BME280;47228;46.762;23.598;2023-09-19T08:30:27;97221.44;;;17.01;79.22
61359;BME280;47228;46.762;23.598;2023-09-19T08:32:58;97222.36;;;16.99;79.47
61359;BME280;47228;46.762;23.598;2023-09-19T08:35:27;97221.88;;;16.99;79.95
61359;BME280;47228;46.762;23.598;2023-09-19T08:37:56;97221.00;;;16.97;79.70
61359;BME280;47228;46.762;23.598;2023-09-19T08:40:24;97216.96;;;16.96;80.02
61359;BME280;47228;46.762;23.598;2023-09-19T08:42:56;97213.27;;;16.96;80.12
61359;BME280;47228;46.762;23.598;2023-09-19T08:45:25;97214.67;;;16.93;80.31
61359;BME280;47228;46.762;23.598;2023-09-19T08:48:27;97217.63;;;16.91;80.98
61359;BME280;47228;46.762;23.598;2023-09-19T08:51:00;97223.77;;;16.94;81.88
61359;BME280;47228;46.762;23.598;2023-09-19T08:53:42;97231.08;;;17.00;82.52
61359;BME280;47228;46.762;23.598;2023-09-19T08:56:17;97230.50;;;17.05;82.39
61359;BME280;47228;46.762;23.598;2023-09-19T08:58:54;97234.36;;;17.10;82.57
61359;BME280;47228;46.762;23.598;2023-09-19T09:01:27;97239.41;;;17.15;82.79
61359;BME280;47228;46.762;23.598;2023-09-19T09:03:56;97239.06;;;17.17;82.47
61359;BME280;47228;46.762;23.598;2023-09-19T09:06:25;97237.48;;;17.20;82.97
61359;BME280;47228;46.762;23.598;2023-09-19T09:08:56;97235.98;;;17.20;82.43
61359;BME280;47228;46.762;23.598;2023-09-19T09:11:24;97233.40;;;17.16;81.61
61359;BME280;47228;46.762;23.598;2023-09-19T09:13:53;97230.77;;;17.11;81.63
61359;BME280;47228;46.762;23.598;2023-09-19T09:16:21;97235.48;;;17.10;82.70
61359;BME280;47228;46.762;23.598;2023-09-19T09:18:49;97242.27;;;17.08;83.27
61359;BME280;47228;46.762;23.598;2023-09-19T09:21:25;97240.45;;;17.05;83.00
61359;BME280;47228;46.762;23.598;2023-09-19T09:23:54;97240.56;;;17.06;82.83
61359;BME280;47228;46.762;23.598;2023-09-19T09:26:42;97236.54;;;17.09;83.31
61359;BME280;47228;46.762;23.598;2023-09-19T09:29:15;97236.17;;;17.14;84.20
61359;BME280;47228;46.762;23.598;2023-09-19T09:31:48;97231.52;;;17.20;84.44
61359;BME280;47228;46.762;23.598;2023-09-19T09:34:16;97226.42;;;17.25;84.09
61359;BME280;47228;46.762;23.598;2023-09-19T09:36:48;97221.27;;;17.29;84.20
61359;BME280;47228;46.762;23.598;2023-09-19T09:39:29;97226.77;;;17.32;84.33
61359;BME280;47228;46.762;23.598;2023-09-19T09:41:59;97228.38;;;17.36;84.39
61359;BME280;47228;46.762;23.598;2023-09-19T09:44:27;97233.85;;;17.40;84.51
61359;BME280;47228;46.762;23.598;2023-09-19T09:47:00;97231.08;;;17.42;84.47
61359;BME280;47228;46.762;23.598;2023-09-19T09:49:50;97226.70;;;17.44;84.62
61359;BME280;47228;46.762;23.598;2023-09-19T09:52:22;97227.15;;;17.46;84.44
61359;BME280;47228;46.762;23.598;2023-09-19T09:55:04;97226.79;;;17.47;84.19
61359;BME280;47228;46.762;23.598;2023-09-19T09:57:36;97215.41;;;17.48;84.22
61359;BME280;47228;46.762;23.598;2023-09-19T10:00:10;97213.15;;;17.48;84.30
61359;BME280;47228;46.762;23.598;2023-09-19T10:02:40;97210.40;;;17.47;84.58
61359;BME280;47228;46.762;23.598;2023-09-19T10:05:17;97203.27;;;17.48;84.71
61359;BME280;47228;46.762;23.598;2023-09-19T10:07:49;97194.70;;;17.49;84.80
61359;BME280;47228;46.762;23.598;2023-09-19T10:13:14;97193.44;;;17.52;85.31
61359;BME280;47228;46.762;23.598;2023-09-19T10:15:48;97189.33;;;17.54;85.28
61359;BME280;47228;46.762;23.598;2023-09-19T10:18:21;97185.74;;;17.55;85.33
61359;BME280;47228;46.762;23.598;2023-09-19T10:20:49;97183.36;;;17.56;85.24
61359;BME280;47228;46.762;23.598;2023-09-19T10:23:19;97183.52;;;17.57;85.62
61359;BME280;47228;46.762;23.598;2023-09-19T10:25:52;97170.05;;;17.58;86.06
61359;BME280;47228;46.762;23.598;2023-09-19T10:28:21;97169.96;;;17.61;86.14
61359;BME280;47228;46.762;23.598;2023-09-19T10:30:53;97173.49;;;17.65;86.00
61359;BME280;47228;46.762;23.598;2023-09-19T10:33:23;97184.84;;;17.67;85.92
61359;BME280;47228;46.762;23.598;2023-09-19T10:35:56;97187.94;;;17.70;86.04
61359;BME280;47228;46.762;23.598;2023-09-19T10:38:27;97189.23;;;17.73;86.13
61359;BME280;47228;46.762;23.598;2023-09-19T10:40:57;97190.85;;;17.78;86.36
61359;BME280;47228;46.762;23.598;2023-09-19T10:43:31;97185.77;;;17.83;86.34
61359;BME280;47228;46.762;23.598;2023-09-19T10:46:07;97175.50;;;17.86;86.35
61359;BME280;47228;46.762;23.598;2023-09-19T10:48:40;97175.23;;;17.92;86.48
61359;BME280;47228;46.762;23.598;2023-09-19T10:51:17;97177.77;;;18.00;86.56
61359;BME280;47228;46.762;23.598;2023-09-19T10:54:06;97175.77;;;18.09;86.24
61359;BME280;47228;46.762;23.598;2023-09-19T10:56:36;97166.52;;;18.19;86.36
61359;BME280;47228;46.762;23.598;2023-09-19T10:59:09;97162.02;;;18.32;86.29
61359;BME280;47228;46.762;23.598;2023-09-19T11:01:43;97154.09;;;18.46;86.32
61359;BME280;47228;46.762;23.598;2023-09-19T11:04:25;97140.92;;;18.55;85.61
61359;BME280;47228;46.762;23.598;2023-09-19T11:09:54;97151.94;;;18.63;85.47
61359;BME280;47228;46.762;23.598;2023-09-19T11:14:58;97159.96;;;18.76;85.61
61359;BME280;47228;46.762;23.598;2023-09-19T11:17:36;97165.32;;;18.83;85.50
61359;BME280;47228;46.762;23.598;2023-09-19T11:30:46;97148.27;;;19.22;83.54
61359;BME280;47228;46.762;23.598;2023-09-19T11:36:05;97158.92;;;19.33;82.82
61359;BME280;47228;46.762;23.598;2023-09-19T11:49:28;97135.23;;;19.61;82.46
61359;BME280;47228;46.762;23.598;2023-09-19T11:51:59;97124.40;;;19.69;81.61
61359;BME280;47228;46.762;23.598;2023-09-19T11:54:36;97120.80;;;19.76;81.28
61359;BME280;47228;46.762;23.598;2023-09-19T11:57:08;97123.86;;;19.82;80.93
61359;BME280;47228;46.762;23.598;2023-09-19T11:59:38;97128.12;;;19.89;80.53
61359;BME280;47228;46.762;23.598;2023-09-19T12:02:07;97125.52;;;19.93;80.20
61359;BME280;47228;46.762;23.598;2023-09-19T12:04:42;97117.98;;;19.96;79.49
61359;BME280;47228;46.762;23.598;2023-09-19T12:07:17;97113.91;;;20.02;79.52
61359;BME280;47228;46.762;23.598;2023-09-19T12:10:04;97112.98;;;20.09;79.67
61359;BME280;47228;46.762;23.598;2023-09-19T12:12:34;97119.89;;;20.15;79.72
61359;BME280;47228;46.762;23.598;2023-09-19T12:15:02;97121.06;;;20.19;79.41
61359;BME280;47228;46.762;23.598;2023-09-19T12:17:36;97116.70;;;20.24;79.17
61359;BME280;47228;46.762;23.598;2023-09-19T12:20:05;97111.98;;;20.32;78.82
61359;BME280;47228;46.762;23.598;2023-09-19T12:22:43;97114.17;;;20.40;78.04
61359;BME280;47228;46.762;23.598;2023-09-19T12:25:13;97113.14;;;20.46;77.93
61359;BME280;47228;46.762;23.598;2023-09-19T12:27:44;97103.25;;;20.52;77.85
61359;BME280;47228;46.762;23.598;2023-09-19T12:30:15;97100.91;;;20.56;77.50
61359;BME280;47228;46.762;23.598;2023-09-19T12:32:48;97098.76;;;20.57;76.47
61359;BME280;47228;46.762;23.598;2023-09-19T12:35:31;97100.52;;;20.58;76.25
61359;BME280;47228;46.762;23.598;2023-09-19T12:38:03;97092.16;;;20.61;76.49
61359;BME280;47228;46.762;23.598;2023-09-19T12:40:32;97093.71;;;20.64;76.71
61359;BME280;47228;46.762;23.598;2023-09-19T12:43:02;97097.86;;;20.66;76.54
61359;BME280;47228;46.762;23.598;2023-09-19T12:45:31;97101.24;;;20.72;76.45
61359;BME280;47228;46.762;23.598;2023-09-19T12:51:07;97091.27;;;20.84;75.96
61359;BME280;47228;46.762;23.598;2023-09-19T12:53:42;97089.91;;;20.91;75.71
61359;BME280;47228;46.762;23.598;2023-09-19T12:56:21;97088.81;;;20.95;75.28
61359;BME280;47228;46.762;23.598;2023-09-19T12:58:55;97086.80;;;20.98;74.88
61359;BME280;47228;46.762;23.598;2023-09-19T13:01:24;97078.95;;;21.01;74.49
61359;BME280;47228;46.762;23.598;2023-09-19T13:04:11;97074.10;;;21.02;74.26
61359;BME280;47228;46.762;23.598;2023-09-19T13:06:46;97080.23;;;21.03;74.25
61359;BME280;47228;46.762;23.598;2023-09-19T13:09:21;97084.98;;;21.04;74.10
61359;BME280;47228;46.762;23.598;2023-09-19T13:11:49;97081.79;;;21.04;73.42
61359;BME280;47228;46.762;23.598;2023-09-19T13:14:23;97078.89;;;21.03;73.17
61359;BME280;47228;46.762;23.598;2023-09-19T13:17:00;97077.70;;;21.03;73.09
61359;BME280;47228;46.762;23.598;2023-09-19T13:19:44;97071.58;;;20.97;72.65
61359;BME280;47228;46.762;23.598;2023-09-19T13:22:36;97068.35;;;20.95;72.86
61359;BME280;47228;46.762;23.598;2023-09-19T13:25:09;97065.11;;;20.95;73.14
61359;BME280;47228;46.762;23.598;2023-09-19T13:27:43;97065.92;;;20.95;72.84
61359;BME280;47228;46.762;23.598;2023-09-19T13:30:12;97071.33;;;20.95;73.00
61359;BME280;47228;46.762;23.598;2023-09-19T13:32:41;97070.30;;;20.93;73.17
61359;BME280;47228;46.762;23.598;2023-09-19T13:35:11;97067.33;;;20.94;73.14
61359;BME280;47228;46.762;23.598;2023-09-19T13:37:41;97064.85;;;20.94;73.18
61359;BME280;47228;46.762;23.598;2023-09-19T13:40:10;97064.48;;;20.95;73.56
61359;BME280;47228;46.762;23.598;2023-09-19T13:42:39;97059.48;;;20.97;73.72
61359;BME280;47228;46.762;23.598;2023-09-19T13:45:08;97058.27;;;21.02;73.54
61359;BME280;47228;46.762;23.598;2023-09-19T13:47:40;97053.60;;;21.07;73.53
61359;BME280;47228;46.762;23.598;2023-09-19T13:50:09;97045.59;;;21.11;73.39
61359;BME280;47228;46.762;23.598;2023-09-19T13:52:37;97044.77;;;21.13;73.49
61359;BME280;47228;46.762;23.598;2023-09-19T13:55:06;97046.86;;;21.15;73.74
61359;BME280;47228;46.762;23.598;2023-09-19T13:57:35;97045.62;;;21.14;73.55
61359;BME280;47228;46.762;23.598;2023-09-19T14:00:03;97048.53;;;21.14;73.43
61359;BME280;47228;46.762;23.598;2023-09-19T14:02:32;97045.04;;;21.13;73.41